createdAt,value
2022-08-19T00:02:14.140Z,14.27
2022-08-19T00:04:41.314Z,13.93
2022-08-19T00:07:08.543Z,17.80
2022-08-19T00:09:35.799Z,14.90
2022-08-19T00:12:05.119Z,19.25
2022-08-19T00:14:33.215Z,14.65
2022-08-19T00:17:01.043Z,16.77
2022-08-19T00:19:28.274Z,13.00
2022-08-19T00:21:57.362Z,17.58
2022-08-19T00:24:25.007Z,16.60
2022-08-19T00:26:52.820Z,13.50
2022-08-19T00:29:21.912Z,17.73
2022-08-19T00:31:50.689Z,17.55
2022-08-19T00:34:17.858Z,14.27
2022-08-19T00:36:45.674Z,13.52
2022-08-19T00:39:14.029Z,12.13
2022-08-19T00:41:42.448Z,16.27
2022-08-19T00:46:55.472Z,16.02
2022-08-19T00:49:52.389Z,17.42
2022-08-19T00:52:24.820Z,15.30
2022-08-19T00:54:53.968Z,16.15
2022-08-19T00:57:27.813Z,13.70
2022-08-19T01:00:02.569Z,15.25
2022-08-19T01:02:31.805Z,19.67
2022-08-19T01:05:00.333Z,13.02
2022-08-19T01:07:27.728Z,13.65
2022-08-19T01:09:55.058Z,17.50
2022-08-19T01:12:22.722Z,16.88
2022-08-19T01:14:51.196Z,16.65
2022-08-19T01:17:20.167Z,18.02
2022-08-19T01:19:48.072Z,15.70
2022-08-19T01:22:33.634Z,15.23
2022-08-19T01:25:02.406Z,18.08
2022-08-19T01:27:44.052Z,13.63
2022-08-19T01:30:20.578Z,15.35
2022-08-19T01:32:47.572Z,14.43
2022-08-19T01:35:18.023Z,16.00
2022-08-19T01:37:52.991Z,14.43
2022-08-19T01:40:22.585Z,16.73
2022-08-19T01:42:58.502Z,18.00
2022-08-19T01:45:27.891Z,14.75
2022-08-19T01:48:02.011Z,14.43
2022-08-19T01:53:06.227Z,16.50
2022-08-19T01:55:41.075Z,18.25
2022-08-19T01:58:16.099Z,16.77
2022-08-19T02:00:44.409Z,14.38
2022-08-19T02:03:12.543Z,16.15
2022-08-19T02:05:43.009Z,16.20
2022-08-19T02:08:11.646Z,16.90
2022-08-19T02:10:44.517Z,19.52
2022-08-19T02:13:14.582Z,12.70
2022-08-19T02:15:42.707Z,17.08
2022-08-19T02:18:10.057Z,25.98
2022-08-19T02:20:39.643Z,14.35
2022-08-19T02:23:14.006Z,18.13
2022-08-19T02:25:48.953Z,17.65
2022-08-19T02:28:18.735Z,22.45
2022-08-19T02:30:47.725Z,14.93
2022-08-19T02:33:15.013Z,15.70
2022-08-19T02:35:44.143Z,13.30
2022-08-19T02:38:26.795Z,13.43
2022-08-19T02:40:57.510Z,17.15
2022-08-19T02:43:25.654Z,18.52
2022-08-19T02:45:53.079Z,20.10
2022-08-19T02:48:22.049Z,15.85
2022-08-19T02:50:56.379Z,15.98
2022-08-19T02:53:27.867Z,23.85
2022-08-19T02:55:55.810Z,16.98
2022-08-19T02:58:25.195Z,17.15
2022-08-19T03:00:55.297Z,17.15
2022-08-19T03:03:22.886Z,16.85
2022-08-19T03:05:56.962Z,14.40
2022-08-19T03:08:26.216Z,14.48
2022-08-19T03:10:55.011Z,17.42
2022-08-19T03:13:22.556Z,19.42
2022-08-19T03:15:50.204Z,17.10
2022-08-19T03:18:18.330Z,20.65
2022-08-19T03:20:48.247Z,19.42
2022-08-19T03:23:17.422Z,19.23
2022-08-19T03:25:47.099Z,12.77
2022-08-19T03:28:26.042Z,16.35
2022-08-19T03:31:05.319Z,15.73
2022-08-19T03:33:53.084Z,15.95
2022-08-19T03:36:26.330Z,15.90
2022-08-19T03:38:59.700Z,15.93
2022-08-19T03:41:44.670Z,16.00
2022-08-19T03:44:19.650Z,19.15
2022-08-19T03:46:50.247Z,13.38
2022-08-19T03:49:18.775Z,16.67
2022-08-19T03:51:48.905Z,15.15
2022-08-19T03:54:18.565Z,14.68
2022-08-19T03:56:48.175Z,21.52
2022-08-19T03:59:23.346Z,15.95
2022-08-19T04:01:54.941Z,18.20
2022-08-19T04:04:22.684Z,15.15
2022-08-19T04:06:50.317Z,16.65
2022-08-19T04:09:17.688Z,14.77
2022-08-19T04:11:51.079Z,15.30
2022-08-19T04:14:23.328Z,23.58
2022-08-19T04:16:58.171Z,18.10
2022-08-19T04:19:27.021Z,14.63
2022-08-19T04:21:55.379Z,17.05
2022-08-19T04:24:23.821Z,14.68
2022-08-19T04:26:54.225Z,14.55
2022-08-19T04:29:28.778Z,20.77
2022-08-19T04:31:57.811Z,16.08
2022-08-19T04:34:29.398Z,13.32
2022-08-19T04:36:59.696Z,16.13
2022-08-19T04:39:49.649Z,14.82
2022-08-19T04:42:37.241Z,17.45
2022-08-19T04:45:09.443Z,15.93
2022-08-19T04:47:47.891Z,16.05
2022-08-19T04:50:27.931Z,11.35
2022-08-19T04:52:56.783Z,10.88
2022-08-19T04:55:26.760Z,17.65
2022-08-19T04:57:55.690Z,13.48
2022-08-19T05:00:24.643Z,13.20
2022-08-19T05:02:53.750Z,19.95
2022-08-19T05:05:20.929Z,15.20
2022-08-19T05:07:48.365Z,14.57
2022-08-19T05:10:18.055Z,15.43
2022-08-19T05:12:45.138Z,16.88
2022-08-19T05:15:15.680Z,15.88
2022-08-19T05:18:03.751Z,16.13
2022-08-19T05:20:50.102Z,19.27
2022-08-19T05:23:21.880Z,14.00
2022-08-19T05:25:54.526Z,14.70
2022-08-19T05:28:26.016Z,14.40
2022-08-19T05:30:56.595Z,14.90
2022-08-19T05:33:27.687Z,16.65
2022-08-19T05:35:57.104Z,14.85
2022-08-19T05:38:24.188Z,15.73
2022-08-19T05:40:51.187Z,13.02
2022-08-19T05:43:20.754Z,13.35
2022-08-19T05:46:03.319Z,16.48
2022-08-19T05:48:32.784Z,18.45
2022-08-19T05:51:09.441Z,14.65
2022-08-19T05:53:36.759Z,15.00
2022-08-19T05:56:10.504Z,17.90
2022-08-19T05:58:42.015Z,16.77
2022-08-19T06:01:19.368Z,10.48
2022-08-19T06:03:50.062Z,13.77
2022-08-19T06:06:18.373Z,15.63
2022-08-19T06:08:53.173Z,18.83
2022-08-19T06:11:59.336Z,11.75
2022-08-19T06:14:31.697Z,13.88
2022-08-19T06:17:07.029Z,18.25
2022-08-19T06:19:34.832Z,16.42
2022-08-19T06:22:16.475Z,13.48
2022-08-19T06:24:48.711Z,16.20
2022-08-19T06:27:17.952Z,16.95
2022-08-19T06:29:46.055Z,14.30
2022-08-19T06:32:17.494Z,18.83
2022-08-19T06:34:48.658Z,15.15
2022-08-19T06:37:16.134Z,17.38
2022-08-19T06:39:45.116Z,16.98
2022-08-19T06:42:14.434Z,18.17
2022-08-19T06:44:43.799Z,12.43
2022-08-19T06:47:23.487Z,15.10
2022-08-19T06:50:05.818Z,18.95
2022-08-19T06:52:47.860Z,11.48
2022-08-19T06:55:16.868Z,15.45
2022-08-19T06:57:49.354Z,16.90
2022-08-19T07:00:17.095Z,18.52
2022-08-19T07:02:50.601Z,15.73
2022-08-19T07:05:28.138Z,13.73
2022-08-19T07:07:57.592Z,17.70
2022-08-19T07:10:27.421Z,13.50
2022-08-19T07:12:55.921Z,24.50
2022-08-19T07:15:24.899Z,11.85
2022-08-19T07:17:53.266Z,14.07
2022-08-19T07:20:22.174Z,18.90
2022-08-19T07:22:59.602Z,15.05
2022-08-19T07:25:32.505Z,12.05
2022-08-19T07:28:01.481Z,13.90
2022-08-19T07:30:28.999Z,15.75
2022-08-19T07:32:58.628Z,14.40
2022-08-19T07:35:26.030Z,11.73
2022-08-19T07:37:54.365Z,13.10
2022-08-19T07:40:29.155Z,10.98
2022-08-19T07:42:56.823Z,16.75
2022-08-19T07:45:24.675Z,7.95
2022-08-19T07:47:52.170Z,5.45
2022-08-19T07:50:24.404Z,9.48
2022-08-19T07:52:55.769Z,11.20
2022-08-19T07:55:41.390Z,12.02
2022-08-19T07:58:17.582Z,18.90
2022-08-19T08:00:48.531Z,12.63
2022-08-19T08:03:20.393Z,13.82
2022-08-19T08:06:06.690Z,4.60
2022-08-19T08:08:52.864Z,8.15
2022-08-19T08:11:24.008Z,5.55
2022-08-19T08:14:00.313Z,10.20
2022-08-19T08:19:40.821Z,9.23
2022-08-19T08:22:33.257Z,6.80
2022-08-19T08:25:11.323Z,10.18
2022-08-19T08:27:43.401Z,10.88
2022-08-19T08:33:19.255Z,9.10
2022-08-19T08:36:09.250Z,12.02
2022-08-19T08:38:41.255Z,8.57
2022-08-19T08:41:48.714Z,5.30
2022-08-19T08:44:22.029Z,9.10
2022-08-19T08:47:01.877Z,8.23
2022-08-19T08:49:43.626Z,10.07
2022-08-19T08:52:24.886Z,7.10
2022-08-19T08:55:10.114Z,9.18
2022-08-19T08:58:06.725Z,8.20
2022-08-19T09:00:43.804Z,8.75
2022-08-19T09:03:20.348Z,8.48
2022-08-19T09:06:21.143Z,9.82
2022-08-19T09:09:11.854Z,6.57
2022-08-19T09:11:46.614Z,9.27
2022-08-19T09:14:49.846Z,7.50
2022-08-19T09:17:19.004Z,10.55
2022-08-19T09:20:09.919Z,7.32
2022-08-19T09:22:45.083Z,11.95
2022-08-19T09:25:16.720Z,6.47
2022-08-19T09:27:44.369Z,8.98
2022-08-19T09:33:05.913Z,8.40
2022-08-19T09:35:33.505Z,7.63
2022-08-19T09:38:17.653Z,7.57
2022-08-19T09:40:45.926Z,6.68
2022-08-19T09:43:15.020Z,9.63
2022-08-19T09:46:04.019Z,3.78
2022-08-19T09:48:34.388Z,7.22
2022-08-19T09:51:17.707Z,11.50
2022-08-19T09:53:46.269Z,10.30
2022-08-19T09:56:14.636Z,9.75
2022-08-19T09:58:41.759Z,9.63
2022-08-19T10:01:12.324Z,10.63
2022-08-19T10:04:00.092Z,9.98
2022-08-19T10:06:38.221Z,8.77
2022-08-19T10:09:16.301Z,8.52
2022-08-19T10:11:55.356Z,9.43
2022-08-19T10:14:24.717Z,9.90
2022-08-19T10:16:53.118Z,10.77
2022-08-19T10:19:25.891Z,9.38
2022-08-19T10:22:00.197Z,9.27
2022-08-19T10:24:29.165Z,10.30
2022-08-19T10:26:59.771Z,8.52
2022-08-19T10:29:33.546Z,11.88
2022-08-19T10:32:03.551Z,15.27
2022-08-19T10:34:31.796Z,11.10
2022-08-19T10:37:03.048Z,15.32
2022-08-19T10:39:43.536Z,10.70
2022-08-19T10:42:26.159Z,12.95
2022-08-19T10:44:53.843Z,12.70
2022-08-19T10:47:26.049Z,8.45
2022-08-19T10:52:49.560Z,8.85
2022-08-19T10:55:40.338Z,9.25
2022-08-19T10:58:16.000Z,15.23
2022-08-19T11:00:47.128Z,9.50
2022-08-19T11:03:14.557Z,13.63
2022-08-19T11:05:42.408Z,9.77
2022-08-19T11:08:23.402Z,7.75
2022-08-19T11:11:00.331Z,6.47
2022-08-19T11:13:30.025Z,10.25
2022-08-19T11:16:07.410Z,9.32
2022-08-19T11:18:44.617Z,7.20
2022-08-19T11:21:20.415Z,11.90
2022-08-19T11:23:50.293Z,10.40
2022-08-19T11:26:18.609Z,12.00
2022-08-19T11:28:46.022Z,7.07
2022-08-19T11:31:19.669Z,10.05
2022-08-19T11:33:47.996Z,8.90
2022-08-19T11:36:16.369Z,6.80
2022-08-19T11:38:45.183Z,8.55
2022-08-19T11:41:12.454Z,12.65
2022-08-19T11:43:41.029Z,6.57
2022-08-19T11:46:10.976Z,13.05
2022-08-19T11:48:39.131Z,9.25
2022-08-19T11:51:09.803Z,8.82
2022-08-19T11:53:37.829Z,7.25
2022-08-19T11:58:33.490Z,7.50
2022-08-19T12:01:00.752Z,7.90
2022-08-19T12:03:29.073Z,10.98
2022-08-19T12:05:56.525Z,11.57
2022-08-19T12:08:23.773Z,10.75
2022-08-19T12:10:50.889Z,12.00
2022-08-19T12:13:19.940Z,13.90
2022-08-19T12:15:48.941Z,10.93
2022-08-19T12:18:16.218Z,10.63
2022-08-19T12:20:44.245Z,10.50
2022-08-19T12:23:11.910Z,11.30
2022-08-19T12:25:51.013Z,4.95
2022-08-19T12:28:21.312Z,15.98
2022-08-19T12:30:52.124Z,6.40
2022-08-19T12:33:25.131Z,10.15
2022-08-19T12:35:53.106Z,9.88
2022-08-19T12:38:20.762Z,13.15
2022-08-19T12:40:48.360Z,10.18
2022-08-19T12:43:16.998Z,12.82
2022-08-19T12:45:44.798Z,7.90
2022-08-19T12:48:33.325Z,10.60
2022-08-19T12:51:11.177Z,7.15
2022-08-19T12:53:39.039Z,9.10
2022-08-19T12:56:23.368Z,12.48
2022-08-19T12:58:53.078Z,4.13
2022-08-19T13:01:24.216Z,8.40
2022-08-19T13:03:54.918Z,8.45
2022-08-19T13:06:23.965Z,10.48
2022-08-19T13:11:36.361Z,9.65
2022-08-19T13:16:32.532Z,9.18
2022-08-19T13:21:31.916Z,12.43
2022-08-19T13:24:05.122Z,12.93
2022-08-19T13:26:35.220Z,4.07
2022-08-19T13:29:20.795Z,14.32
2022-08-19T13:32:17.666Z,8.45
2022-08-19T13:34:48.426Z,11.63
2022-08-19T13:37:15.827Z,15.30
2022-08-19T13:39:42.910Z,6.85
2022-08-19T13:42:11.578Z,11.50
2022-08-19T13:44:38.909Z,9.75
2022-08-19T13:47:07.904Z,15.40
2022-08-19T13:49:37.349Z,9.07
2022-08-19T13:52:06.567Z,6.32
2022-08-19T13:57:16.637Z,15.60
2022-08-19T13:59:43.665Z,10.38
2022-08-19T14:02:11.814Z,18.45
2022-08-19T14:04:39.137Z,10.95
2022-08-19T14:07:06.164Z,7.03
2022-08-19T14:09:33.182Z,6.88
2022-08-19T14:12:00.548Z,12.13
2022-08-19T14:14:27.605Z,10.13
2022-08-19T14:16:54.601Z,10.70
2022-08-19T14:19:22.436Z,9.65
2022-08-19T14:21:51.452Z,4.65
2022-08-19T14:24:18.443Z,11.68
2022-08-19T14:26:45.808Z,8.88
2022-08-19T14:29:14.002Z,11.10
2022-08-19T14:31:43.687Z,11.15
2022-08-19T14:34:11.561Z,14.82
2022-08-19T14:36:40.295Z,7.30
2022-08-19T14:39:34.269Z,9.38
2022-08-19T14:42:11.411Z,10.15
2022-08-19T14:44:39.074Z,8.65
2022-08-19T14:47:08.775Z,8.30
2022-08-19T14:49:42.342Z,13.63
2022-08-19T14:52:13.501Z,9.65
2022-08-19T14:54:46.368Z,6.90
2022-08-19T14:57:17.902Z,11.25
2022-08-19T14:59:45.167Z,8.70
2022-08-19T15:02:34.297Z,11.38
2022-08-19T15:05:02.681Z,9.93
2022-08-19T15:07:33.285Z,13.65
2022-08-19T15:10:07.872Z,8.88
2022-08-19T15:12:40.512Z,8.77
2022-08-19T15:15:14.299Z,13.75
2022-08-19T15:17:46.561Z,8.98
2022-08-19T15:20:19.552Z,13.00
2022-08-19T15:22:49.262Z,9.85
2022-08-19T15:25:19.742Z,10.00
2022-08-19T15:27:47.432Z,12.05
2022-08-19T15:32:53.606Z,11.57
2022-08-19T15:35:23.460Z,16.60
2022-08-19T15:37:52.376Z,13.93
2022-08-19T15:40:21.125Z,10.00
2022-08-19T15:42:50.067Z,12.88
2022-08-19T15:45:23.601Z,12.52
2022-08-19T15:48:08.195Z,12.30
2022-08-19T15:50:36.000Z,9.93
2022-08-19T15:53:09.480Z,21.50
2022-08-19T15:55:42.726Z,8.18
2022-08-19T15:58:33.679Z,9.73
2022-08-19T16:01:26.907Z,6.95
2022-08-19T16:04:15.924Z,14.73
2022-08-19T16:06:52.902Z,9.02
2022-08-19T16:09:27.631Z,14.90
2022-08-19T16:12:06.031Z,13.32
2022-08-19T16:14:35.596Z,10.43
2022-08-19T16:17:15.471Z,12.02
2022-08-19T16:19:52.603Z,13.00
2022-08-19T16:22:19.877Z,12.60
2022-08-19T16:24:47.460Z,10.13
2022-08-19T16:27:16.195Z,11.15
2022-08-19T16:29:43.270Z,13.40
2022-08-19T16:32:12.155Z,19.08
2022-08-19T16:34:43.837Z,15.75
2022-08-19T16:37:10.905Z,17.98
2022-08-19T16:39:43.666Z,27.02
2022-08-19T16:42:12.175Z,24.77
2022-08-19T16:47:18.088Z,21.80
2022-08-19T16:49:54.540Z,22.25
2022-08-19T16:52:27.109Z,23.70
2022-08-19T16:54:55.718Z,25.65
2022-08-19T16:57:27.054Z,25.33
2022-08-19T16:59:55.200Z,20.52
2022-08-19T17:02:30.465Z,20.83
2022-08-19T17:05:01.199Z,24.50
2022-08-19T17:07:33.572Z,25.63
2022-08-19T17:10:02.610Z,36.95
2022-08-19T17:12:31.958Z,35.13
2022-08-19T17:15:04.093Z,30.55
2022-08-19T17:17:33.532Z,32.03
2022-08-19T17:20:02.880Z,34.53
2022-08-19T17:22:36.881Z,32.45
2022-08-19T17:25:07.721Z,28.55
2022-08-19T17:27:34.832Z,26.75
2022-08-19T17:30:06.877Z,30.30
2022-08-19T17:32:37.226Z,24.50
2022-08-19T17:35:07.359Z,22.10
2022-08-19T17:37:38.733Z,22.67
2022-08-19T17:40:09.217Z,31.00
2022-08-19T17:42:37.223Z,26.27
2022-08-19T17:45:05.589Z,29.08
2022-08-19T17:47:36.135Z,26.10
2022-08-19T17:50:13.246Z,28.65
2022-08-19T17:52:52.497Z,29.05
2022-08-19T17:55:20.983Z,25.25
2022-08-19T17:57:52.971Z,26.33
2022-08-19T18:00:22.000Z,22.75
2022-08-19T18:02:54.262Z,28.20
2022-08-19T18:05:29.653Z,23.50
2022-08-19T18:07:58.583Z,25.45
2022-08-19T18:10:31.447Z,16.98
2022-08-19T18:13:02.442Z,31.02
2022-08-19T18:15:45.541Z,28.40
2022-08-19T18:18:14.914Z,22.58
2022-08-19T18:20:44.292Z,21.75
2022-08-19T18:23:43.780Z,20.90
2022-08-19T18:25:58.779Z,22.00
2022-08-19T18:28:27.051Z,22.42
2022-08-19T18:30:54.107Z,19.88
2022-08-19T18:33:47.030Z,17.50
2022-08-19T18:36:14.272Z,22.02
2022-08-19T18:39:02.868Z,20.65
2022-08-19T18:41:54.480Z,26.95
2022-08-19T18:44:41.377Z,19.63
2022-08-19T18:47:36.122Z,22.55
2022-08-19T18:50:11.793Z,23.85
2022-08-19T18:52:40.107Z,17.00
2022-08-19T18:55:09.149Z,25.98
2022-08-19T18:57:36.525Z,16.98
2022-08-19T19:00:05.586Z,18.27
2022-08-19T19:02:39.107Z,21.17
2022-08-19T19:05:10.424Z,22.00
2022-08-19T19:07:42.914Z,19.35
2022-08-19T19:10:11.348Z,25.25
2022-08-19T19:12:43.621Z,18.05
2022-08-19T19:15:12.070Z,20.05
2022-08-19T19:17:42.840Z,20.55
2022-08-19T19:20:10.084Z,20.50
2022-08-19T19:22:40.218Z,14.82
2022-08-19T19:25:15.260Z,19.15
2022-08-19T19:27:46.124Z,17.17
2022-08-19T19:30:16.064Z,13.80
2022-08-19T19:32:43.117Z,18.05
2022-08-19T19:37:57.315Z,17.95
2022-08-19T19:40:24.479Z,18.67
2022-08-19T19:42:52.120Z,15.48
2022-08-19T19:45:25.178Z,18.00
2022-08-19T19:47:57.688Z,12.35
2022-08-19T19:50:31.709Z,20.58
2022-08-19T19:53:21.064Z,20.73
2022-08-19T19:55:50.986Z,15.45
2022-08-19T19:58:21.251Z,15.57
2022-08-19T20:01:01.576Z,15.95
2022-08-19T20:03:36.426Z,15.82
2022-08-19T20:06:03.674Z,13.10
2022-08-19T20:08:55.349Z,15.70
2022-08-19T20:11:41.467Z,20.10
2022-08-19T20:14:16.332Z,19.73
2022-08-19T20:16:48.191Z,13.48
2022-08-19T20:19:21.257Z,13.95
2022-08-19T20:22:14.062Z,14.52
2022-08-19T20:24:45.390Z,13.98
2022-08-19T20:27:12.951Z,16.58
2022-08-19T20:29:44.428Z,16.98
2022-08-19T20:32:15.764Z,12.07
2022-08-19T20:34:44.799Z,13.30
2022-08-19T20:37:14.993Z,12.75
2022-08-19T20:39:42.557Z,9.05
2022-08-19T20:42:13.408Z,8.60
2022-08-19T20:44:44.740Z,13.07
2022-08-19T20:47:12.460Z,11.80
2022-08-19T20:49:42.712Z,9.93
2022-08-19T20:52:10.637Z,9.57
2022-08-19T20:54:41.775Z,9.75
2022-08-19T20:57:08.881Z,11.40
2022-08-19T20:59:40.785Z,13.27
2022-08-19T21:02:14.860Z,12.75
2022-08-19T21:04:46.285Z,6.78
2022-08-19T21:07:17.757Z,8.20
2022-08-19T21:09:44.827Z,9.70
2022-08-19T21:12:13.112Z,15.00
2022-08-19T21:14:47.228Z,9.27
2022-08-19T21:17:17.306Z,10.45
2022-08-19T21:19:44.733Z,13.50
2022-08-19T21:22:11.772Z,15.52
2022-08-19T21:24:43.233Z,13.23
2022-08-19T21:27:12.603Z,20.10
2022-08-19T21:29:43.335Z,17.55
2022-08-19T21:32:14.067Z,17.65
2022-08-19T21:34:46.666Z,12.30
2022-08-19T21:37:25.397Z,16.75
2022-08-19T21:39:54.877Z,14.13
2022-08-19T21:42:25.749Z,13.55
2022-08-19T21:44:53.406Z,14.75
2022-08-19T21:47:23.191Z,15.70
2022-08-19T21:49:50.964Z,13.90
2022-08-19T21:52:35.009Z,11.98
2022-08-19T21:55:07.811Z,15.45
2022-08-19T21:57:41.320Z,12.60
2022-08-19T22:00:25.543Z,16.05
2022-08-19T22:02:53.129Z,13.57
2022-08-19T22:05:23.299Z,17.63
2022-08-19T22:07:51.791Z,10.65
2022-08-19T22:10:32.857Z,16.08
2022-08-19T22:12:59.970Z,9.98
2022-08-19T22:15:32.166Z,13.60
2022-08-19T22:18:03.586Z,12.10
2022-08-19T22:20:32.808Z,10.98
2022-08-19T22:23:06.683Z,15.20
2022-08-19T22:25:45.606Z,12.65
2022-08-19T22:28:14.605Z,16.52
2022-08-19T22:30:51.209Z,16.80
2022-08-19T22:33:22.456Z,11.68
2022-08-19T22:35:54.503Z,22.77
2022-08-19T22:38:23.022Z,12.52
2022-08-19T22:40:54.055Z,11.85
2022-08-19T22:43:26.910Z,17.05
2022-08-19T22:45:58.745Z,10.45
2022-08-19T22:48:28.374Z,11.75
2022-08-19T22:51:19.448Z,12.13
2022-08-19T22:53:47.791Z,11.07
2022-08-19T22:56:19.666Z,14.63
2022-08-19T22:58:54.423Z,8.20
2022-08-19T23:01:30.368Z,10.20
2022-08-19T23:04:03.854Z,13.57
2022-08-19T23:06:38.145Z,19.23
2022-08-19T23:09:11.230Z,13.00
2022-08-19T23:11:46.510Z,11.60
2022-08-19T23:14:17.111Z,12.43
2022-08-19T23:16:50.436Z,11.93
2022-08-19T23:19:19.388Z,11.55
2022-08-19T23:21:49.616Z,13.45
2022-08-19T23:24:17.060Z,12.48
2022-08-19T23:27:04.545Z,12.52
2022-08-19T23:29:54.426Z,10.43
2022-08-19T23:32:23.651Z,11.82
2022-08-19T23:34:55.399Z,11.60
2022-08-19T23:37:22.618Z,16.42
2022-08-19T23:42:18.496Z,14.18
2022-08-19T23:44:52.312Z,10.93
2022-08-19T23:47:22.200Z,11.63
2022-08-19T23:49:49.834Z,17.65
2022-08-19T23:52:16.811Z,17.50
2022-08-19T23:54:44.126Z,14.35
2022-08-19T23:57:13.697Z,11.20
2022-08-19T23:59:45.674Z,18.55
